Fryeburg, Maine
Current Conditions -  °F | °C
As of 10:54 PM on Sunday 25 Jan 2015 (Local Time) from KIZG Reporting Station
Clear Clear  
Wind Chill:   Ceiling: Unl
Heat Index:   Visibility: 10mi
Dew Point: -6°   Wind: 3mph
Humidity: 72%   Direction: 190°S
Pressure: 29.99"   Gusts: NA
Location:  44.02°N, 70.98°W
Report Text: KIZG 260354Z AUTO 19003KT 10SM CLR M17/M21 A2999 RMK AO2 SLP166 T11721211
Loading
Personal Weather Stations






























Interactive Weather Map New forecast layout! Learn more

10-Day Weather Forecast

Advertisements
Track Severe Weather on mobile